Погода Аполлонияна неделю

Фиери, Албания

21 - 27 июля
  • 21июля
    Сегодня
    +22°
    +38°
    Ясно и безоблачно
    ВремяПогодаТемператураВлажностьДавлениеВетер, м/сВероятность осадков
    02:00Ясно и безоблачно+26°C78 %755 мм0.8 м/с2 %
    05:00Ясно и безоблачно+24°C79 %755 мм1.1 м/с2 %
    08:00Ясно и безоблачно+26°C58 %756 мм0.6 м/с2 %
    11:00Ясно и безоблачно+35°C37 %756 мм1.8 м/с2 %
    14:00Ясно и безоблачно+38°C35 %756 мм3.8 м/с3 %
    17:00Ясно и безоблачно+36°C46 %755 мм3.8 м/с4 %
    20:00Ясно и безоблачно+31°C65 %756 мм1.8 м/с2 %
    23:00Ясно и безоблачно+27°C83 %756 мм0.6 м/с2 %
  • 22июля
    Понедельник
    +22°
    +38°
    Ясно и безоблачно
    ВремяПогодаТемператураВлажностьДавлениеВетер, м/сВероятность осадков
    02:00Ясно и безоблачно+25°C88 %756 мм0.7 м/с2 %
    05:00Ясно и безоблачно+23°C88 %756 мм0.8 м/с2 %
    08:00Ясно и безоблачно+26°C65 %756 мм0.4 м/с2 %
    11:00Ясно и безоблачно+34°C36 %756 мм1.2 м/с2 %
    14:00Ясно и безоблачно+38°C30 %756 мм3.9 м/с2 %
    17:00Практически безоблачно+38°C29 %755 мм2.3 м/с2 %
    20:00Ясно и безоблачно+32°C50 %755 мм2.1 м/с2 %
    23:00Практически безоблачно+27°C74 %755 мм1.1 м/с3 %
  • 23июля
    Вторник
    +23°
    +40°
    Практически безоблачно
    ВремяПогодаТемператураВлажностьДавлениеВетер, м/сВероятность осадков
    02:00Небольшая облачность+25°C81 %755 мм0.2 м/с2 %
    05:00Практически безоблачно+24°C80 %754 мм1.2 м/с3 %
    08:00Ясно и безоблачно+25°C59 %755 мм1.0 м/с3 %
    11:00Ясно и безоблачно+34°C33 %755 мм1.9 м/с4 %
    14:00Практически безоблачно+39°C26 %755 мм1.5 м/с39 %
    17:00Ясно и безоблачно+36°C39 %755 мм5.6 м/с22 %
    20:00Ясно и безоблачно+31°C61 %756 мм2.6 м/с2 %
    23:00Ясно и безоблачно+27°C79 %756 мм1.4 м/с2 %
  • 24июля
    Среда
    +23°
    +38°
    Ясно и безоблачно
    ВремяПогодаТемператураВлажностьДавлениеВетер, м/сВероятность осадков
    02:00Ясно и безоблачно+26°C87 %756 мм1.7 м/с2 %
    05:00Ясно и безоблачно+24°C84 %755 мм2.1 м/с2 %
    08:00Ясно и безоблачно+26°C67 %755 мм1.3 м/с2 %
    11:00Ясно и безоблачно+34°C49 %755 мм2.4 м/с2 %
    14:00Ясно и безоблачно+37°C47 %754 мм3.8 м/с16 %
    17:00Практически безоблачно+35°C56 %754 мм3.6 м/с13 %
    20:00Ясно и безоблачно+31°C75 %754 мм2.0 м/с2 %
    23:00Ясно и безоблачно+27°C88 %754 мм0.6 м/с4 %
Мы используем cookies
Соглашаюсь